sensor_id;sensor_type;location;lat;lon;timestamp;pressure;altitude;pressure_sealevel;temperature
43292;BMP280;28754;47.700;7.924;2022-12-10T00:01:10;89902.38;;;2.08
43292;BMP280;28754;47.700;7.924;2022-12-10T00:03:57;89891.84;;;2.21
43292;BMP280;28754;47.700;7.924;2022-12-10T00:06:45;89895.94;;;2.32
43292;BMP280;28754;47.700;7.924;2022-12-10T00:09:32;89898.19;;;2.29
43292;BMP280;28754;47.700;7.924;2022-12-10T00:12:19;89899.50;;;2.31
43292;BMP280;28754;47.700;7.924;2022-12-10T00:15:06;89905.59;;;2.40
43292;BMP280;28754;47.700;7.924;2022-12-10T00:17:53;89899.31;;;2.47
43292;BMP280;28754;47.700;7.924;2022-12-10T00:20:39;89906.66;;;2.54
43292;BMP280;28754;47.700;7.924;2022-12-10T00:23:26;89898.63;;;2.57
43292;BMP280;28754;47.700;7.924;2022-12-10T00:26:17;89907.47;;;2.59
43292;BMP280;28754;47.700;7.924;2022-12-10T00:29:07;89894.84;;;2.64
43292;BMP280;28754;47.700;7.924;2022-12-10T00:31:55;89897.91;;;2.71
43292;BMP280;28754;47.700;7.924;2022-12-10T00:34:42;89890.09;;;2.72
43292;BMP280;28754;47.700;7.924;2022-12-10T00:37:28;89888.59;;;2.76
43292;BMP280;28754;47.700;7.924;2022-12-10T00:40:15;89897.22;;;2.80
43292;BMP280;28754;47.700;7.924;2022-12-10T00:43:02;89893.94;;;2.85
43292;BMP280;28754;47.700;7.924;2022-12-10T00:45:48;89884.84;;;2.89
43292;BMP280;28754;47.700;7.924;2022-12-10T00:48:35;89895.72;;;2.94
43292;BMP280;28754;47.700;7.924;2022-12-10T00:51:25;89900.28;;;2.97
43292;BMP280;28754;47.700;7.924;2022-12-10T00:54:12;89896.47;;;2.90
43292;BMP280;28754;47.700;7.924;2022-12-10T00:56:59;89908.31;;;2.79
43292;BMP280;28754;47.700;7.924;2022-12-10T00:59:45;89901.75;;;2.78
43292;BMP280;28754;47.700;7.924;2022-12-10T01:02:32;89895.66;;;2.79
43292;BMP280;28754;47.700;7.924;2022-12-10T01:05:19;89894.19;;;2.83
43292;BMP280;28754;47.700;7.924;2022-12-10T01:08:05;89883.56;;;2.86
43292;BMP280;28754;47.700;7.924;2022-12-10T01:10:53;89885.09;;;2.92
43292;BMP280;28754;47.700;7.924;2022-12-10T01:13:41;89905.59;;;2.96
43292;BMP280;28754;47.700;7.924;2022-12-10T01:16:28;89895.22;;;2.92
43292;BMP280;28754;47.700;7.924;2022-12-10T01:19:18;89908.09;;;2.91
43292;BMP280;28754;47.700;7.924;2022-12-10T01:22:05;89908.59;;;2.88
43292;BMP280;28754;47.700;7.924;2022-12-10T01:24:51;89913.88;;;2.86
43292;BMP280;28754;47.700;7.924;2022-12-10T01:27:38;89923.97;;;2.76
43292;BMP280;28754;47.700;7.924;2022-12-10T01:30:25;89914.31;;;2.69
43292;BMP280;28754;47.700;7.924;2022-12-10T01:33:11;89914.84;;;2.71
43292;BMP280;28754;47.700;7.924;2022-12-10T01:36:09;89909.28;;;2.73
43292;BMP280;28754;47.700;7.924;2022-12-10T01:38:56;89914.84;;;2.75
43292;BMP280;28754;47.700;7.924;2022-12-10T01:47:27;89918.94;;;2.86
43292;BMP280;28754;47.700;7.924;2022-12-10T01:50:14;89911.13;;;2.88
43292;BMP280;28754;47.700;7.924;2022-12-10T01:53:02;89907.59;;;2.89
43292;BMP280;28754;47.700;7.924;2022-12-10T01:55:51;89916.47;;;2.91
43292;BMP280;28754;47.700;7.924;2022-12-10T01:58:38;89920.78;;;2.96
43292;BMP280;28754;47.700;7.924;2022-12-10T02:07:53;89913.41;;;2.94
43292;BMP280;28754;47.700;7.924;2022-12-10T02:14:21;89923.25;;;2.91
43292;BMP280;28754;47.700;7.924;2022-12-10T02:17:27;89924.50;;;2.88
43292;BMP280;28754;47.700;7.924;2022-12-10T02:20:32;89929.59;;;2.93
43292;BMP280;28754;47.700;7.924;2022-12-10T02:23:38;89927.59;;;2.95
43292;BMP280;28754;47.700;7.924;2022-12-10T02:26:58;89923.78;;;2.93
43292;BMP280;28754;47.700;7.924;2022-12-10T02:29:51;89933.66;;;2.94
43292;BMP280;28754;47.700;7.924;2022-12-10T02:32:44;89921.50;;;2.91
43292;BMP280;28754;47.700;7.924;2022-12-10T02:35:36;89922.25;;;2.92
43292;BMP280;28754;47.700;7.924;2022-12-10T02:38:32;89920.50;;;2.97
43292;BMP280;28754;47.700;7.924;2022-12-10T02:41:28;89908.13;;;2.96
43292;BMP280;28754;47.700;7.924;2022-12-10T02:44:21;89913.19;;;2.96
43292;BMP280;28754;47.700;7.924;2022-12-10T02:47:11;89912.91;;;2.92
43292;BMP280;28754;47.700;7.924;2022-12-10T02:50:04;89905.31;;;2.87
43292;BMP280;28754;47.700;7.924;2022-12-10T02:52:52;89921.97;;;2.78
43292;BMP280;28754;47.700;7.924;2022-12-10T02:56:13;89911.50;;;2.65
43292;BMP280;28754;47.700;7.924;2022-12-10T02:59:20;89921.84;;;2.59
43292;BMP280;28754;47.700;7.924;2022-12-10T03:02:40;89914.53;;;2.57
43292;BMP280;28754;47.700;7.924;2022-12-10T03:06:18;89924.88;;;2.61
43292;BMP280;28754;47.700;7.924;2022-12-10T03:09:26;89921.84;;;2.59
43292;BMP280;28754;47.700;7.924;2022-12-10T03:12:29;89915.78;;;2.60
43292;BMP280;28754;47.700;7.924;2022-12-10T03:15:21;89915.06;;;2.64
43292;BMP280;28754;47.700;7.924;2022-12-10T03:18:11;89921.91;;;2.69
43292;BMP280;28754;47.700;7.924;2022-12-10T03:21:05;89915.59;;;2.71
43292;BMP280;28754;47.700;7.924;2022-12-10T03:23:53;89921.66;;;2.70
43292;BMP280;28754;47.700;7.924;2022-12-10T03:26:41;89922.91;;;2.68
43292;BMP280;28754;47.700;7.924;2022-12-10T03:29:35;89911.03;;;2.68
43292;BMP280;28754;47.700;7.924;2022-12-10T03:32:27;89920.66;;;2.71
43292;BMP280;28754;47.700;7.924;2022-12-10T03:35:15;89904.72;;;2.71
43292;BMP280;28754;47.700;7.924;2022-12-10T03:38:03;89904.22;;;2.69
43292;BMP280;28754;47.700;7.924;2022-12-10T03:40:50;89902.41;;;2.59
43292;BMP280;28754;47.700;7.924;2022-12-10T03:43:51;89903.31;;;2.38
43292;BMP280;28754;47.700;7.924;2022-12-10T03:46:38;89907.50;;;2.23
43292;BMP280;28754;47.700;7.924;2022-12-10T03:49:25;89912.56;;;2.23
43292;BMP280;28754;47.700;7.924;2022-12-10T03:52:12;89922.16;;;2.26
43292;BMP280;28754;47.700;7.924;2022-12-10T03:54:58;89918.66;;;2.27
43292;BMP280;28754;47.700;7.924;2022-12-10T03:57:45;89906.81;;;2.33
43292;BMP280;28754;47.700;7.924;2022-12-10T04:00:32;89913.69;;;2.42
43292;BMP280;28754;47.700;7.924;2022-12-10T04:03:18;89908.63;;;2.42
43292;BMP280;28754;47.700;7.924;2022-12-10T04:06:11;89905.56;;;2.35
43292;BMP280;28754;47.700;7.924;2022-12-10T04:08:58;89906.06;;;2.32
43292;BMP280;28754;47.700;7.924;2022-12-10T04:11:44;89909.84;;;2.35
43292;BMP280;28754;47.700;7.924;2022-12-10T04:14:31;89911.91;;;2.42
43292;BMP280;28754;47.700;7.924;2022-12-10T04:17:36;89906.66;;;2.49
43292;BMP280;28754;47.700;7.924;2022-12-10T04:20:23;89911.19;;;2.52
43292;BMP280;28754;47.700;7.924;2022-12-10T04:23:28;89910.44;;;2.51
43292;BMP280;28754;47.700;7.924;2022-12-10T04:26:33;89903.88;;;2.50
43292;BMP280;28754;47.700;7.924;2022-12-10T04:29:38;89914.50;;;2.52
43292;BMP280;28754;47.700;7.924;2022-12-10T04:32:28;89902.38;;;2.54
43292;BMP280;28754;47.700;7.924;2022-12-10T04:35:15;89902.66;;;2.58
43292;BMP280;28754;47.700;7.924;2022-12-10T04:38:01;89898.13;;;2.60
43292;BMP280;28754;47.700;7.924;2022-12-10T04:40:48;89897.38;;;2.64
43292;BMP280;28754;47.700;7.924;2022-12-10T04:43:35;89894.34;;;2.67
43292;BMP280;28754;47.700;7.924;2022-12-10T04:46:21;89905.22;;;2.68
43292;BMP280;28754;47.700;7.924;2022-12-10T04:49:09;89909.50;;;2.67
43292;BMP280;28754;47.700;7.924;2022-12-10T04:51:55;89906.50;;;2.70
43292;BMP280;28754;47.700;7.924;2022-12-10T04:54:43;89915.34;;;2.68
43292;BMP280;28754;47.700;7.924;2022-12-10T04:57:30;89914.03;;;2.65
43292;BMP280;28754;47.700;7.924;2022-12-10T05:00:17;89920.88;;;2.65
43292;BMP280;28754;47.700;7.924;2022-12-10T05:03:03;89927.94;;;2.63
43292;BMP280;28754;47.700;7.924;2022-12-10T05:05:50;89928.19;;;2.61
43292;BMP280;28754;47.700;7.924;2022-12-10T05:08:38;89929.63;;;2.47
43292;BMP280;28754;47.700;7.924;2022-12-10T05:11:28;89955.03;;;2.31
43292;BMP280;28754;47.700;7.924;2022-12-10T05:14:15;89941.59;;;2.21
43292;BMP280;28754;47.700;7.924;2022-12-10T05:17:02;89943.09;;;2.22
43292;BMP280;28754;47.700;7.924;2022-12-10T05:19:49;89937.06;;;2.23
43292;BMP280;28754;47.700;7.924;2022-12-10T05:22:36;89938.09;;;2.27
43292;BMP280;28754;47.700;7.924;2022-12-10T05:25:41;89936.56;;;2.26
43292;BMP280;28754;47.700;7.924;2022-12-10T05:28:46;89931.53;;;2.31
43292;BMP280;28754;47.700;7.924;2022-12-10T05:31:32;89939.41;;;2.34
43292;BMP280;28754;47.700;7.924;2022-12-10T05:34:19;89924.00;;;2.36
43292;BMP280;28754;47.700;7.924;2022-12-10T05:37:06;89930.34;;;2.38
43292;BMP280;28754;47.700;7.924;2022-12-10T05:39:52;89935.84;;;2.35
43292;BMP280;28754;47.700;7.924;2022-12-10T05:42:39;89930.53;;;2.32
43292;BMP280;28754;47.700;7.924;2022-12-10T05:45:26;89933.31;;;2.35
43292;BMP280;28754;47.700;7.924;2022-12-10T05:48:15;89942.47;;;2.41
43292;BMP280;28754;47.700;7.924;2022-12-10T05:51:05;89939.47;;;2.44
43292;BMP280;28754;47.700;7.924;2022-12-10T05:53:53;89950.09;;;2.46
43292;BMP280;28754;47.700;7.924;2022-12-10T05:56:40;89955.38;;;2.44
43292;BMP280;28754;47.700;7.924;2022-12-10T05:59:26;89948.03;;;2.43
43292;BMP280;28754;47.700;7.924;2022-12-10T06:02:14;89949.56;;;2.44
43292;BMP280;28754;47.700;7.924;2022-12-10T06:05:00;89960.44;;;2.44
43292;BMP280;28754;47.700;7.924;2022-12-10T06:07:47;89962.16;;;2.39
43292;BMP280;28754;47.700;7.924;2022-12-10T06:10:35;89971.22;;;2.35
43292;BMP280;28754;47.700;7.924;2022-12-10T06:13:22;89973.47;;;2.32
43292;BMP280;28754;47.700;7.924;2022-12-10T06:16:12;89968.13;;;2.28
43292;BMP280;28754;47.700;7.924;2022-12-10T06:18:59;89975.72;;;2.28
43292;BMP280;28754;47.700;7.924;2022-12-10T06:21:45;89960.81;;;2.27
43292;BMP280;28754;47.700;7.924;2022-12-10T06:24:32;89963.59;;;2.30
43292;BMP280;28754;47.700;7.924;2022-12-10T06:27:19;89959.59;;;2.34
43292;BMP280;28754;47.700;7.924;2022-12-10T06:30:06;89962.88;;;2.35
43292;BMP280;28754;47.700;7.924;2022-12-10T06:32:53;89972.75;;;2.36
43292;BMP280;28754;47.700;7.924;2022-12-10T06:35:40;89978.53;;;2.32
43292;BMP280;28754;47.700;7.924;2022-12-10T06:38:26;89977.97;;;2.25
43292;BMP280;28754;47.700;7.924;2022-12-10T06:41:16;89988.31;;;2.23
43292;BMP280;28754;47.700;7.924;2022-12-10T06:44:07;89988.06;;;2.25
43292;BMP280;28754;47.700;7.924;2022-12-10T06:46:54;89986.81;;;2.27
43292;BMP280;28754;47.700;7.924;2022-12-10T06:49:40;89995.66;;;2.25
43292;BMP280;28754;47.700;7.924;2022-12-10T06:52:27;89992.53;;;2.18
43292;BMP280;28754;47.700;7.924;2022-12-10T06:55:14;90002.38;;;2.14
43292;BMP280;28754;47.700;7.924;2022-12-10T06:58:00;90013.22;;;2.15
43292;BMP280;28754;47.700;7.924;2022-12-10T07:00:47;90009.19;;;2.14
43292;BMP280;28754;47.700;7.924;2022-12-10T07:03:35;90020.50;;;2.11
43292;BMP280;28754;47.700;7.924;2022-12-10T07:06:22;90011.09;;;2.02
43292;BMP280;28754;47.700;7.924;2022-12-10T07:09:10;90010.78;;;1.94
43292;BMP280;28754;47.700;7.924;2022-12-10T07:11:56;90022.16;;;1.96
43292;BMP280;28754;47.700;7.924;2022-12-10T07:14:43;90007.75;;;1.97
43292;BMP280;28754;47.700;7.924;2022-12-10T07:17:30;90010.78;;;1.94
43292;BMP280;28754;47.700;7.924;2022-12-10T07:20:17;90021.03;;;1.82
43292;BMP280;28754;47.700;7.924;2022-12-10T07:23:03;90010.03;;;1.67
43292;BMP280;28754;47.700;7.924;2022-12-10T07:25:54;90008.97;;;1.63
43292;BMP280;28754;47.700;7.924;2022-12-10T07:28:41;90026.19;;;1.71
43292;BMP280;28754;47.700;7.924;2022-12-10T07:31:28;90025.03;;;1.78
43292;BMP280;28754;47.700;7.924;2022-12-10T07:34:15;90034.91;;;1.85
43292;BMP280;28754;47.700;7.924;2022-12-10T07:37:02;90038.53;;;1.94
43292;BMP280;28754;47.700;7.924;2022-12-10T07:39:49;90040.06;;;1.95
43292;BMP280;28754;47.700;7.924;2022-12-10T07:42:36;90047.38;;;1.96
43292;BMP280;28754;47.700;7.924;2022-12-10T07:45:22;90046.34;;;1.92
43292;BMP280;28754;47.700;7.924;2022-12-10T07:48:09;90035.25;;;1.93
43292;BMP280;28754;47.700;7.924;2022-12-10T07:50:57;90038.75;;;1.92
43292;BMP280;28754;47.700;7.924;2022-12-10T07:53:44;90037.03;;;1.93
43292;BMP280;28754;47.700;7.924;2022-12-10T07:56:31;90029.50;;;1.98
43292;BMP280;28754;47.700;7.924;2022-12-10T07:59:17;90040.13;;;2.00
43292;BMP280;28754;47.700;7.924;2022-12-10T08:02:04;90064.59;;;1.99
43292;BMP280;28754;47.700;7.924;2022-12-10T08:04:51;90074.91;;;1.98
43292;BMP280;28754;47.700;7.924;2022-12-10T08:07:37;90057.03;;;1.99
43292;BMP280;28754;47.700;7.924;2022-12-10T08:10:24;90067.38;;;2.03
43292;BMP280;28754;47.700;7.924;2022-12-10T08:13:11;90065.69;;;2.08
43292;BMP280;28754;47.700;7.924;2022-12-10T08:16:04;90061.91;;;2.10
43292;BMP280;28754;47.700;7.924;2022-12-10T08:18:51;90064.97;;;2.12
43292;BMP280;28754;47.700;7.924;2022-12-10T08:21:37;90060.91;;;2.11
43292;BMP280;28754;47.700;7.924;2022-12-10T08:24:24;90065.19;;;2.11
43292;BMP280;28754;47.700;7.924;2022-12-10T08:27:11;90072.53;;;2.12
43292;BMP280;28754;47.700;7.924;2022-12-10T08:29:58;90068.06;;;2.19
43292;BMP280;28754;47.700;7.924;2022-12-10T08:32:45;90069.84;;;2.24
43292;BMP280;28754;47.700;7.924;2022-12-10T08:35:31;90073.97;;;2.30
43292;BMP280;28754;47.700;7.924;2022-12-10T08:38:18;90073.75;;;2.36
43292;BMP280;28754;47.700;7.924;2022-12-10T08:41:11;90058.69;;;2.46
43292;BMP280;28754;47.700;7.924;2022-12-10T08:43:58;90078.63;;;2.47
43292;BMP280;28754;47.700;7.924;2022-12-10T08:46:45;90076.31;;;2.41
43292;BMP280;28754;47.700;7.924;2022-12-10T08:49:32;90080.63;;;2.40
43292;BMP280;28754;47.700;7.924;2022-12-10T08:52:18;90096.53;;;2.41
43292;BMP280;28754;47.700;7.924;2022-12-10T08:55:05;90092.91;;;2.32
43292;BMP280;28754;47.700;7.924;2022-12-10T08:57:52;90095.09;;;2.24
43292;BMP280;28754;47.700;7.924;2022-12-10T09:00:39;90092.25;;;2.15
43292;BMP280;28754;47.700;7.924;2022-12-10T09:03:25;90094.97;;;2.09
43292;BMP280;28754;47.700;7.924;2022-12-10T09:06:16;90107.94;;;2.17
43292;BMP280;28754;47.700;7.924;2022-12-10T09:09:03;90100.91;;;2.24
43292;BMP280;28754;47.700;7.924;2022-12-10T09:11:49;90097.97;;;2.32
43292;BMP280;28754;47.700;7.924;2022-12-10T09:14:36;90112.69;;;2.40
43292;BMP280;28754;47.700;7.924;2022-12-10T09:17:24;90110.97;;;2.45
43292;BMP280;28754;47.700;7.924;2022-12-10T09:20:11;90119.34;;;2.51
43292;BMP280;28754;47.700;7.924;2022-12-10T09:22:59;90124.38;;;2.46
43292;BMP280;28754;47.700;7.924;2022-12-10T09:25:45;90118.53;;;2.45
43292;BMP280;28754;47.700;7.924;2022-12-10T09:28:32;90122.53;;;2.41
43292;BMP280;28754;47.700;7.924;2022-12-10T09:31:20;90122.31;;;2.43
43292;BMP280;28754;47.700;7.924;2022-12-10T09:34:07;90120.72;;;2.37
43292;BMP280;28754;47.700;7.924;2022-12-10T09:36:53;90126.78;;;2.36
43292;BMP280;28754;47.700;7.924;2022-12-10T09:39:40;90129.09;;;2.38
43292;BMP280;28754;47.700;7.924;2022-12-10T09:42:50;90124.28;;;2.36
43292;BMP280;28754;47.700;7.924;2022-12-10T09:52:15;90127.47;;;2.27
43292;BMP280;28754;47.700;7.924;2022-12-10T09:55:12;90121.41;;;2.28
43292;BMP280;28754;47.700;7.924;2022-12-10T09:58:01;90122.72;;;2.35
43292;BMP280;28754;47.700;7.924;2022-12-10T10:01:00;90140.19;;;2.37
43292;BMP280;28754;47.700;7.924;2022-12-10T10:03:47;90131.84;;;2.36
43292;BMP280;28754;47.700;7.924;2022-12-10T10:06:33;90131.88;;;2.41
43292;BMP280;28754;47.700;7.924;2022-12-10T10:09:21;90135.47;;;2.45
43292;BMP280;28754;47.700;7.924;2022-12-10T10:12:14;90144.09;;;2.49
43292;BMP280;28754;47.700;7.924;2022-12-10T10:35:52;90152.47;;;2.54
43292;BMP280;28754;47.700;7.924;2022-12-10T10:39:27;90130.94;;;2.47
43292;BMP280;28754;47.700;7.924;2022-12-10T10:47:01;90143.06;;;2.50
43292;BMP280;28754;47.700;7.924;2022-12-10T10:49:51;90148.63;;;2.47
43292;BMP280;28754;47.700;7.924;2022-12-10T10:52:45;90147.53;;;2.38
43292;BMP280;28754;47.700;7.924;2022-12-10T10:55:33;90158.16;;;2.40
43292;BMP280;28754;47.700;7.924;2022-12-10T10:58:26;90150.06;;;2.38
43292;BMP280;28754;47.700;7.924;2022-12-10T11:01:16;90161.13;;;2.37
43292;BMP280;28754;47.700;7.924;2022-12-10T11:07:32;90142.75;;;2.15
43292;BMP280;28754;47.700;7.924;2022-12-10T11:10:25;90157.44;;;2.18
43292;BMP280;28754;47.700;7.924;2022-12-10T11:13:37;90161.66;;;2.13
43292;BMP280;28754;47.700;7.924;2022-12-10T11:16:43;90169.03;;;2.19
43292;BMP280;28754;47.700;7.924;2022-12-10T11:19:59;90155.44;;;2.20
43292;BMP280;28754;47.700;7.924;2022-12-10T11:23:08;90152.97;;;2.25
43292;BMP280;28754;47.700;7.924;2022-12-10T11:26:59;90176.66;;;2.24
43292;BMP280;28754;47.700;7.924;2022-12-10T11:30:39;90148.84;;;2.19
43292;BMP280;28754;47.700;7.924;2022-12-10T11:34:30;90144.84;;;2.23
43292;BMP280;28754;47.700;7.924;2022-12-10T11:38:09;90173.44;;;2.29
43292;BMP280;28754;47.700;7.924;2022-12-10T11:45:23;90180.25;;;2.28
43292;BMP280;28754;47.700;7.924;2022-12-10T11:51:04;90173.53;;;2.38
43292;BMP280;28754;47.700;7.924;2022-12-10T12:01:43;90190.31;;;2.49
43292;BMP280;28754;47.700;7.924;2022-12-10T12:19:00;90215.19;;;2.36
43292;BMP280;28754;47.700;7.924;2022-12-10T12:22:38;90225.53;;;2.35
43292;BMP280;28754;47.700;7.924;2022-12-10T12:25:35;90212.72;;;2.41
43292;BMP280;28754;47.700;7.924;2022-12-10T12:28:42;90207.44;;;2.42
43292;BMP280;28754;47.700;7.924;2022-12-10T12:31:37;90203.66;;;2.45
43292;BMP280;28754;47.700;7.924;2022-12-10T12:37:56;90218.28;;;2.43
43292;BMP280;28754;47.700;7.924;2022-12-10T12:40:53;90221.28;;;2.40
43292;BMP280;28754;47.700;7.924;2022-12-10T12:44:03;90231.59;;;2.34
43292;BMP280;28754;47.700;7.924;2022-12-10T12:46:51;90232.28;;;2.29
43292;BMP280;28754;47.700;7.924;2022-12-10T12:49:41;90234.81;;;2.29
43292;BMP280;28754;47.700;7.924;2022-12-10T12:52:55;90240.50;;;2.20
43292;BMP280;28754;47.700;7.924;2022-12-10T13:05:38;90265.47;;;2.16
43292;BMP280;28754;47.700;7.924;2022-12-10T13:08:29;90252.84;;;2.16
43292;BMP280;28754;47.700;7.924;2022-12-10T13:11:32;90258.34;;;2.13
43292;BMP280;28754;47.700;7.924;2022-12-10T13:14:36;90255.38;;;2.16
43292;BMP280;28754;47.700;7.924;2022-12-10T13:24:11;90276.91;;;2.03
43292;BMP280;28754;47.700;7.924;2022-12-10T13:27:31;90261.91;;;1.96
43292;BMP280;28754;47.700;7.924;2022-12-10T13:30:36;90268.19;;;1.94
43292;BMP280;28754;47.700;7.924;2022-12-10T13:33:24;90278.53;;;1.92
43292;BMP280;28754;47.700;7.924;2022-12-10T13:36:11;90277.00;;;1.91
43292;BMP280;28754;47.700;7.924;2022-12-10T13:48:28;90277.81;;;1.97
43292;BMP280;28754;47.700;7.924;2022-12-10T13:51:37;90285.94;;;1.99
43292;BMP280;28754;47.700;7.924;2022-12-10T13:58:24;90296.34;;;2.02
43292;BMP280;28754;47.700;7.924;2022-12-10T14:08:14;90318.91;;;1.92
43292;BMP280;28754;47.700;7.924;2022-12-10T14:11:10;90323.19;;;1.92
43292;BMP280;28754;47.700;7.924;2022-12-10T14:14:01;90330.69;;;1.87
43292;BMP280;28754;47.700;7.924;2022-12-10T14:16:48;90329.41;;;1.84
43292;BMP280;28754;47.700;7.924;2022-12-10T14:19:35;90327.09;;;1.83
43292;BMP280;28754;47.700;7.924;2022-12-10T14:22:47;90336.50;;;1.87
43292;BMP280;28754;47.700;7.924;2022-12-10T14:25:43;90337.88;;;1.95
43292;BMP280;28754;47.700;7.924;2022-12-10T14:28:44;90331.91;;;2.01
43292;BMP280;28754;47.700;7.924;2022-12-10T14:31:35;90337.03;;;2.05
43292;BMP280;28754;47.700;7.924;2022-12-10T14:34:27;90352.25;;;2.10
43292;BMP280;28754;47.700;7.924;2022-12-10T14:37:14;90352.72;;;2.07
43292;BMP280;28754;47.700;7.924;2022-12-10T14:40:07;90343.06;;;2.04
43292;BMP280;28754;47.700;7.924;2022-12-10T14:43:23;90349.66;;;2.05
43292;BMP280;28754;47.700;7.924;2022-12-10T14:46:35;90342.53;;;2.03
43292;BMP280;28754;47.700;7.924;2022-12-10T14:49:26;90336.56;;;1.92
43292;BMP280;28754;47.700;7.924;2022-12-10T14:52:51;90339.34;;;1.91
43292;BMP280;28754;47.700;7.924;2022-12-10T14:55:38;90361.97;;;2.02
43292;BMP280;28754;47.700;7.924;2022-12-10T14:58:46;90363.56;;;2.08
43292;BMP280;28754;47.700;7.924;2022-12-10T15:01:39;90364.09;;;2.10
43292;BMP280;28754;47.700;7.924;2022-12-10T15:39:54;90395.41;;;1.93
43292;BMP280;28754;47.700;7.924;2022-12-10T15:43:36;90376.88;;;1.87
43292;BMP280;28754;47.700;7.924;2022-12-10T15:46:23;90387.19;;;1.86
43292;BMP280;28754;47.700;7.924;2022-12-10T15:49:12;90413.13;;;1.81
43292;BMP280;28754;47.700;7.924;2022-12-10T15:52:22;90380.63;;;1.69
43292;BMP280;28754;47.700;7.924;2022-12-10T15:55:38;90392.34;;;1.74
43292;BMP280;28754;47.700;7.924;2022-12-10T15:58:41;90418.31;;;1.75
43292;BMP280;28754;47.700;7.924;2022-12-10T16:05:50;90414.06;;;1.75
43292;BMP280;28754;47.700;7.924;2022-12-10T16:08:47;90394.16;;;1.79
43292;BMP280;28754;47.700;7.924;2022-12-10T16:11:34;90397.00;;;1.82
43292;BMP280;28754;47.700;7.924;2022-12-10T16:14:21;90398.69;;;1.77
43292;BMP280;28754;47.700;7.924;2022-12-10T16:17:09;90401.19;;;1.77
43292;BMP280;28754;47.700;7.924;2022-12-10T16:20:27;90407.25;;;1.76
43292;BMP280;28754;47.700;7.924;2022-12-10T16:23:15;90408.22;;;1.75
43292;BMP280;28754;47.700;7.924;2022-12-10T16:26:29;90410.22;;;1.73
43292;BMP280;28754;47.700;7.924;2022-12-10T16:29:16;90415.25;;;1.73
43292;BMP280;28754;47.700;7.924;2022-12-10T16:32:10;90413.53;;;1.73
43292;BMP280;28754;47.700;7.924;2022-12-10T16:34:57;90413.53;;;1.73
43292;BMP280;28754;47.700;7.924;2022-12-10T16:37:46;90423.09;;;1.71
43292;BMP280;28754;47.700;7.924;2022-12-10T16:40:33;90409.47;;;1.72
43292;BMP280;28754;47.700;7.924;2022-12-10T16:43:26;90417.03;;;1.72
43292;BMP280;28754;47.700;7.924;2022-12-10T16:46:14;90421.09;;;1.73
43292;BMP280;28754;47.700;7.924;2022-12-10T16:49:01;90429.34;;;1.69
43292;BMP280;28754;47.700;7.924;2022-12-10T16:51:51;90423.44;;;1.64
43292;BMP280;28754;47.700;7.924;2022-12-10T16:54:43;90423.44;;;1.64
43292;BMP280;28754;47.700;7.924;2022-12-10T16:57:36;90431.22;;;1.62
43292;BMP280;28754;47.700;7.924;2022-12-10T17:00:51;90437.22;;;1.56
43292;BMP280;28754;47.700;7.924;2022-12-10T17:03:39;90424.59;;;1.56
43292;BMP280;28754;47.700;7.924;2022-12-10T17:06:26;90431.63;;;1.54
43292;BMP280;28754;47.700;7.924;2022-12-10T17:14:09;90424.34;;;1.41
43292;BMP280;28754;47.700;7.924;2022-12-10T17:16:59;90442.97;;;1.40
43292;BMP280;28754;47.700;7.924;2022-12-10T17:19:49;90410.19;;;1.40
43292;BMP280;28754;47.700;7.924;2022-12-10T17:22:35;90425.53;;;1.39
43292;BMP280;28754;47.700;7.924;2022-12-10T17:25:23;90440.91;;;1.37
43292;BMP280;28754;47.700;7.924;2022-12-10T17:28:22;90451.44;;;1.35
43292;BMP280;28754;47.700;7.924;2022-12-10T17:31:30;90449.91;;;1.34
43292;BMP280;28754;47.700;7.924;2022-12-10T17:34:32;90428.72;;;1.35
43292;BMP280;28754;47.700;7.924;2022-12-10T17:37:19;90432.19;;;1.29
43292;BMP280;28754;47.700;7.924;2022-12-10T17:40:25;90442.47;;;1.27
43292;BMP280;28754;47.700;7.924;2022-12-10T17:43:19;90441.84;;;1.20
43292;BMP280;28754;47.700;7.924;2022-12-10T17:46:10;90444.25;;;1.15
43292;BMP280;28754;47.700;7.924;2022-12-10T17:48:57;90442.88;;;1.08
43292;BMP280;28754;47.700;7.924;2022-12-10T17:51:45;90464.69;;;1.02
43292;BMP280;28754;47.700;7.924;2022-12-10T17:54:31;90440.16;;;0.98
43292;BMP280;28754;47.700;7.924;2022-12-10T17:57:23;90448.50;;;0.99
43292;BMP280;28754;47.700;7.924;2022-12-10T18:00:19;90449.94;;;0.95
43292;BMP280;28754;47.700;7.924;2022-12-10T18:03:08;90448.63;;;0.92
43292;BMP280;28754;47.700;7.924;2022-12-10T18:06:41;90447.75;;;0.87
43292;BMP280;28754;47.700;7.924;2022-12-10T18:09:33;90456.63;;;0.89
43292;BMP280;28754;47.700;7.924;2022-12-10T18:12:21;90457.84;;;0.87
43292;BMP280;28754;47.700;7.924;2022-12-10T18:15:12;90439.72;;;0.90
43292;BMP280;28754;47.700;7.924;2022-12-10T18:18:02;90460.78;;;0.95
43292;BMP280;28754;47.700;7.924;2022-12-10T18:20:49;90464.94;;;1.01
43292;BMP280;28754;47.700;7.924;2022-12-10T18:23:36;90459.13;;;1.01
43292;BMP280;28754;47.700;7.924;2022-12-10T18:26:29;90469.22;;;1.01
43292;BMP280;28754;47.700;7.924;2022-12-10T18:29:16;90468.13;;;0.97
43292;BMP280;28754;47.700;7.924;2022-12-10T18:32:03;90465.28;;;0.93
43292;BMP280;28754;47.700;7.924;2022-12-10T18:34:50;90479.09;;;0.91
43292;BMP280;28754;47.700;7.924;2022-12-10T18:37:42;90535.72;;;0.88
43292;BMP280;28754;47.700;7.924;2022-12-10T18:40:32;90493.19;;;0.92
43292;BMP280;28754;47.700;7.924;2022-12-10T18:43:21;90465.06;;;0.95
43292;BMP280;28754;47.700;7.924;2022-12-10T18:46:21;90502.09;;;0.94
43292;BMP280;28754;47.700;7.924;2022-12-10T18:49:13;90537.91;;;0.85
43292;BMP280;28754;47.700;7.924;2022-12-10T18:52:18;90500.13;;;0.85
43292;BMP280;28754;47.700;7.924;2022-12-10T18:55:29;90478.44;;;0.84
43292;BMP280;28754;47.700;7.924;2022-12-10T18:58:18;90479.75;;;0.86
43292;BMP280;28754;47.700;7.924;2022-12-10T19:01:14;90486.31;;;0.87
43292;BMP280;28754;47.700;7.924;2022-12-10T19:08:23;90501.63;;;0.97
43292;BMP280;28754;47.700;7.924;2022-12-10T19:21:23;90505.91;;;0.85
43292;BMP280;28754;47.700;7.924;2022-12-10T19:28:53;90497.19;;;0.88
43292;BMP280;28754;47.700;7.924;2022-12-10T19:36:52;90458.84;;;0.74
43292;BMP280;28754;47.700;7.924;2022-12-10T19:54:17;90533.00;;;0.78
43292;BMP280;28754;47.700;7.924;2022-12-10T19:57:34;90507.59;;;0.80
43292;BMP280;28754;47.700;7.924;2022-12-10T20:00:34;90542.09;;;0.79
43292;BMP280;28754;47.700;7.924;2022-12-10T20:03:42;90500.16;;;0.73
43292;BMP280;28754;47.700;7.924;2022-12-10T20:07:23;90499.06;;;0.58
43292;BMP280;28754;47.700;7.924;2022-12-10T20:11:13;90483.72;;;0.48
43292;BMP280;28754;47.700;7.924;2022-12-10T20:14:05;90498.19;;;0.53
43292;BMP280;28754;47.700;7.924;2022-12-10T20:16:58;90495.00;;;0.46